Time;durP1;ratioP1;P1;durP2;ratioP2;P2;SDS_P1;SDS_P2;PMS_P1;PMS_P2;Temp;Humidity;BMP_temperature;BMP_pressure;BME280_temperature;BME280_humidity;BME280_pressure;Samples;Min_cycle;Max_cycle;Signal;HPM_P1;HPM_P2
2022/09/09 00:01:26;;;;;;;0.00;0.00;;;;;;;13.49;100.00;100615.56;5220183;28;20507;-65
2022/09/09 00:04:28;;;;;;;0.03;0.00;;;;;;;13.51;100.00;100610.91;5221837;28;20033;-66
2022/09/09 00:07:10;;;;;;;0.00;0.00;;;;;;;13.50;100.00;100607.38;5227101;28;20376;-65
2022/09/09 00:09:53;;;;;;;0.00;0.00;;;;;;;13.47;100.00;100606.81;5228289;28;20061;-65
2022/09/09 00:12:29;;;;;;;0.00;0.00;;;;;;;13.41;100.00;100605.56;5228758;28;20490;-65
2022/09/09 00:15:23;;;;;;;0.00;0.00;;;;;;;13.41;100.00;100608.22;5217386;28;20092;-65
2022/09/09 00:18:10;;;;;;;0.00;0.00;;;;;;;13.35;100.00;100603.44;5211754;28;20065;-65
2022/09/09 00:20:53;;;;;;;0.00;0.00;;;;;;;13.29;100.00;100603.97;5215159;28;20034;-65
2022/09/09 00:23:39;;;;;;;0.00;0.00;;;;;;;13.26;100.00;100601.56;5225590;28;20025;-66
2022/09/09 00:26:29;;;;;;;0.00;0.00;;;;;;;13.28;100.00;100604.97;5215117;28;20060;-65
2022/09/09 00:29:35;;;;;;;0.00;0.00;;;;;;;13.28;100.00;100607.63;5219197;28;20352;-65
2022/09/09 00:32:14;;;;;;;0.00;0.00;;;;;;;13.26;100.00;100606.94;5222180;28;20063;-65
2022/09/09 00:34:52;;;;;;;0.00;0.00;;;;;;;13.25;100.00;100598.06;5222640;28;20109;-65
2022/09/09 00:37:26;;;;;;;0.00;0.00;;;;;;;13.26;100.00;100597.06;5242417;28;20052;-65
2022/09/09 00:40:02;;;;;;;0.00;0.00;;;;;;;13.26;100.00;100596.22;5225274;28;20505;-65
2022/09/09 00:42:42;;;;;;;0.00;0.00;;;;;;;13.28;100.00;100586.19;5227345;28;20025;-65
2022/09/09 00:45:25;;;;;;;0.00;0.00;;;;;;;13.25;100.00;100570.41;5213450;28;20460;-65
2022/09/09 00:48:00;;;;;;;0.00;0.00;;;;;;;13.23;100.00;100575.06;5213310;28;20645;-65
2022/09/09 00:50:32;;;;;;;0.00;0.00;;;;;;;13.20;100.00;100568.16;5237937;28;20044;-65
2022/09/09 00:53:19;;;;;;;0.00;0.00;;;;;;;13.18;100.00;100577.31;5235322;28;20025;-65
2022/09/09 00:56:05;;;;;;;0.00;0.00;;;;;;;13.20;100.00;100578.88;5239325;28;20454;-65
2022/09/09 00:58:37;;;;;;;0.10;0.00;;;;;;;13.19;100.00;100569.13;5237858;28;20360;-65
2022/09/09 01:01:12;;;;;;;0.00;0.00;;;;;;;13.19;100.00;100570.97;5222940;28;20072;-65
2022/09/09 01:03:54;;;;;;;0.00;0.00;;;;;;;13.18;100.00;100582.69;5238504;28;20033;-65
2022/09/09 01:06:38;;;;;;;0.00;0.00;;;;;;;13.15;100.00;100567.72;5229542;28;20413;-65
2022/09/09 01:09:31;;;;;;;0.00;0.00;;;;;;;13.13;100.00;100578.59;5226470;28;20037;-65
2022/09/09 01:12:14;;;;;;;0.00;0.00;;;;;;;13.12;100.00;100578.72;5230154;28;20292;-66
2022/09/09 01:14:54;;;;;;;0.00;0.00;;;;;;;13.10;100.00;100570.00;5225494;28;20038;-65
2022/09/09 01:17:34;;;;;;;0.10;0.00;;;;;;;13.09;100.00;100574.50;5236186;28;20025;-65
2022/09/09 01:20:25;;;;;;;0.00;0.00;;;;;;;13.07;100.00;100571.09;5223409;28;20030;-65
2022/09/09 01:23:15;;;;;;;0.00;0.00;;;;;;;13.04;100.00;100571.41;5227335;28;20080;-65
2022/09/09 01:26:12;;;;;;;0.00;0.00;;;;;;;13.06;100.00;100566.75;5224967;28;20026;-66
2022/09/09 01:28:47;;;;;;;0.00;0.00;;;;;;;13.02;100.00;100564.47;5219561;28;20030;-65
2022/09/09 01:31:22;;;;;;;0.00;0.00;;;;;;;13.00;100.00;100558.41;5221235;28;20041;-65
2022/09/09 01:33:53;;;;;;;0.00;0.00;;;;;;;12.99;100.00;100554.91;5224624;28;20029;-65
2022/09/09 01:36:38;;;;;;;0.00;0.00;;;;;;;12.99;100.00;100557.56;5231100;28;20036;-65
2022/09/09 01:39:10;;;;;;;0.00;0.00;;;;;;;12.94;100.00;100554.47;5224810;28;20099;-65
2022/09/09 01:41:41;;;;;;;0.00;0.00;;;;;;;12.93;100.00;100548.28;5225525;28;20033;-65
2022/09/09 01:44:13;;;;;;;0.00;0.00;;;;;;;12.91;100.00;100544.88;5226723;28;20127;-65
2022/09/09 01:46:44;;;;;;;0.00;0.00;;;;;;;12.92;100.00;100541.25;5222953;28;20112;-66
2022/09/09 01:49:17;;;;;;;0.00;0.00;;;;;;;12.93;100.00;100552.78;5217784;28;20384;-65
2022/09/09 01:51:53;;;;;;;0.00;0.00;;;;;;;12.91;100.00;100552.91;5222993;28;20382;-66
2022/09/09 01:54:29;;;;;;;0.10;0.00;;;;;;;12.89;100.00;100548.69;5237578;28;20402;-65
2022/09/09 01:57:33;;;;;;;0.00;0.00;;;;;;;12.88;100.00;100555.88;5230045;28;20043;-67
2022/09/09 02:00:10;;;;;;;0.10;0.00;;;;;;;12.86;100.00;100548.97;5223133;28;20112;-66
2022/09/09 02:03:05;;;;;;;0.00;0.00;;;;;;;12.84;100.00;100540.22;5229179;28;20040;-65
2022/09/09 02:06:15;;;;;;;0.00;0.00;;;;;;;12.85;100.00;100541.94;5228648;28;20159;-65
2022/09/09 02:08:51;;;;;;;0.00;0.00;;;;;;;12.82;100.00;100526.97;5220613;28;20383;-65
2022/09/09 02:11:26;;;;;;;0.00;0.00;;;;;;;12.82;100.00;100532.34;5226949;28;20049;-65
2022/09/09 02:14:05;;;;;;;0.00;0.00;;;;;;;12.82;100.00;100529.66;5222473;28;20037;-66
2022/09/09 02:16:47;;;;;;;0.00;0.00;;;;;;;12.80;100.00;100526.28;5229499;28;20036;-66
2022/09/09 02:19:25;;;;;;;0.00;0.00;;;;;;;12.81;100.00;100535.16;5214914;28;20083;-66
2022/09/09 02:22:00;;;;;;;0.00;0.00;;;;;;;12.80;100.00;100534.31;5222474;28;20025;-65
2022/09/09 02:24:35;;;;;;;0.15;0.00;;;;;;;12.79;100.00;100526.41;5230144;28;20087;-65
2022/09/09 02:27:09;;;;;;;0.00;0.00;;;;;;;12.79;100.00;100540.66;5225195;28;20041;-65
2022/09/09 02:29:42;;;;;;;0.00;0.00;;;;;;;12.79;100.00;100537.97;5229310;28;20029;-65
2022/09/09 02:32:17;;;;;;;0.00;0.00;;;;;;;12.79;100.00;100527.28;5230160;28;20029;-65
2022/09/09 02:34:54;;;;;;;0.00;0.00;;;;;;;12.75;100.00;100523.16;5226082;28;20489;-65
2022/09/09 02:37:36;;;;;;;0.00;0.00;;;;;;;12.75;100.00;100524.03;5224958;28;20537;-65
2022/09/09 02:40:10;;;;;;;0.00;0.00;;;;;;;12.71;100.00;100530.66;5222740;28;20497;-65
2022/09/09 02:42:43;;;;;;;;;;;;;;;12.72;100.00;100520.78;5232948;28;20169;-65
2022/09/09 02:45:20;;;;;;;0.00;0.00;;;;;;;12.67;100.00;100520.34;5212148;28;20436;-66
2022/09/09 02:47:56;;;;;;;0.00;0.00;;;;;;;12.67;100.00;100529.22;5223817;28;20037;-65
2022/09/09 02:50:34;;;;;;;0.00;0.00;;;;;;;12.69;100.00;100526.41;5222117;28;20034;-65
2022/09/09 02:53:20;;;;;;;0.00;0.00;;;;;;;12.69;100.00;100529.06;5220755;28;20035;-66
2022/09/09 02:56:00;;;;;;;0.00;0.00;;;;;;;12.69;100.00;100527.25;5234116;28;20029;-66
2022/09/09 02:58:33;;;;;;;0.00;0.00;;;;;;;12.71;100.00;100530.66;5232563;28;20036;-66
2022/09/09 03:01:04;;;;;;;0.00;0.00;;;;;;;12.73;100.00;100531.34;5228274;28;20022;-65
2022/09/09 03:03:36;;;;;;;0.00;0.00;;;;;;;12.75;100.00;100529.38;5228771;28;20524;-65
2022/09/09 03:06:07;;;;;;;0.00;0.00;;;;;;;12.76;100.00;100527.53;5232696;28;20380;-65
2022/09/09 03:08:38;;;;;;;0.00;0.00;;;;;;;12.78;100.00;100522.88;5233689;28;20494;-65
2022/09/09 03:11:09;;;;;;;0.00;0.00;;;;;;;12.79;100.00;100527.28;5223513;28;20538;-65
2022/09/09 03:13:41;;;;;;;0.00;0.00;;;;;;;12.82;100.00;100521.63;5230265;28;20474;-65
2022/09/09 03:16:12;;;;;;;0.00;0.00;;;;;;;12.83;100.00;100534.03;5229929;28;20077;-65
2022/09/09 03:18:45;;;;;;;0.00;0.00;;;;;;;12.83;100.00;100533.16;5235787;28;20491;-65
2022/09/09 03:21:17;;;;;;;0.00;0.00;;;;;;;12.80;100.00;100530.78;5230069;28;20026;-65
2022/09/09 03:23:48;;;;;;;0.00;0.00;;;;;;;12.80;100.00;100538.81;5235001;28;20037;-65
2022/09/09 03:26:20;;;;;;;0.00;0.00;;;;;;;12.82;100.00;100537.69;5222635;28;20470;-65
2022/09/09 03:28:51;;;;;;;0.00;0.00;;;;;;;12.82;100.00;100540.38;5219470;28;20640;-65
2022/09/09 03:31:22;;;;;;;0.00;0.00;;;;;;;12.84;100.00;100549.09;5222329;28;20140;-65
2022/09/09 03:33:54;;;;;;;0.00;0.00;;;;;;;12.83;100.00;100538.53;5220040;28;20345;-66
2022/09/09 03:36:26;;;;;;;0.00;0.00;;;;;;;12.83;100.00;100546.56;5218949;28;21452;-65
2022/09/09 03:38:59;;;;;;;0.00;0.00;;;;;;;12.85;100.00;100534.75;5217266;28;20037;-66
2022/09/09 03:41:30;;;;;;;0.00;0.00;;;;;;;12.87;100.00;100529.25;5220197;28;20032;-66
2022/09/09 03:44:01;;;;;;;0.00;0.00;;;;;;;12.89;100.00;100535.31;5218709;28;20407;-66
2022/09/09 03:46:33;;;;;;;0.00;0.00;;;;;;;12.90;100.00;100528.94;5222764;28;20033;-66
2022/09/09 03:49:04;;;;;;;0.00;0.00;;;;;;;12.88;100.00;100533.59;5216811;28;20033;-65
2022/09/09 03:51:36;;;;;;;0.00;0.00;;;;;;;12.89;100.00;100529.97;5221980;28;20546;-65
2022/09/09 03:54:10;;;;;;;0.00;0.00;;;;;;;12.87;100.00;100529.25;5218972;28;20187;-65
2022/09/09 03:56:41;;;;;;;0.00;0.00;;;;;;;12.88;100.00;100531.75;5212552;28;20443;-65
2022/09/09 03:59:14;;;;;;;0.10;0.00;;;;;;;12.89;100.00;100529.97;5208687;28;20030;-65
2022/09/09 04:01:46;;;;;;;0.00;0.00;;;;;;;12.89;100.00;100527.28;5216572;28;20073;-66
2022/09/09 04:04:17;;;;;;;0.00;0.00;;;;;;;12.88;100.00;100528.25;5217863;28;20035;-66
2022/09/09 04:06:48;;;;;;;0.00;0.00;;;;;;;12.87;100.00;100530.09;5218848;28;20024;-65
2022/09/09 04:09:20;;;;;;;0.00;0.00;;;;;;;12.85;100.00;100520.53;5221417;28;20399;-65
2022/09/09 04:11:52;;;;;;;0.00;0.00;;;;;;;12.83;100.00;100525.13;5215520;28;20421;-66
2022/09/09 04:14:28;;;;;;;0.00;0.00;;;;;;;12.83;100.00;100522.47;5217830;28;20114;-65
2022/09/09 04:17:00;;;;;;;0.00;0.00;;;;;;;12.83;100.00;100517.97;5214064;28;20037;-66
2022/09/09 04:19:31;;;;;;;0.00;0.00;;;;;;;12.85;100.00;100531.22;5220489;28;20476;-65
2022/09/09 04:22:03;;;;;;;0.00;0.00;;;;;;;12.84;100.00;100521.50;5221380;28;20060;-65
2022/09/09 04:24:35;;;;;;;0.00;0.00;;;;;;;12.85;100.00;100515.16;5221940;28;20049;-65
2022/09/09 04:27:06;;;;;;;0.00;0.00;;;;;;;12.88;100.00;100509.50;5219459;28;20099;-65
2022/09/09 04:29:38;;;;;;;0.00;0.00;;;;;;;12.90;100.00;100507.53;5235730;28;20391;-65
2022/09/09 04:32:09;;;;;;;0.00;0.00;;;;;;;12.92;100.00;100505.56;5238551;28;20388;-66
2022/09/09 04:34:41;;;;;;;0.00;0.00;;;;;;;12.94;100.00;100506.25;5238876;28;20033;-65
2022/09/09 04:37:12;;;;;;;0.00;0.00;;;;;;;12.95;100.00;100510.66;5230351;28;20451;-65
2022/09/09 04:39:44;;;;;;;0.00;0.00;;;;;;;12.95;100.00;100510.66;5240347;28;20047;-66
2022/09/09 04:42:17;;;;;;;0.00;0.00;;;;;;;12.94;100.00;100514.28;5242063;28;20486;-66
2022/09/09 04:44:48;;;;;;;0.00;0.00;;;;;;;12.95;100.00;100514.16;5227007;28;20107;-66
2022/09/09 04:47:20;;;;;;;0.00;0.00;;;;;;;12.94;100.00;100503.59;5234875;28;20036;-65
2022/09/09 04:49:52;;;;;;;0.00;0.00;;;;;;;12.93;100.00;100501.91;5234529;28;20052;-65
2022/09/09 04:52:24;;;;;;;0.00;0.00;;;;;;;12.93;100.00;100496.56;5238382;28;20024;-66
2022/09/09 04:54:55;;;;;;;0.00;0.00;;;;;;;12.94;100.00;100500.91;5234247;28;20051;-66
2022/09/09 04:57:26;;;;;;;0.00;0.00;;;;;;;12.93;100.00;100491.19;5253111;28;20031;-65
2022/09/09 04:59:59;;;;;;;0.03;0.00;;;;;;;12.95;100.00;100502.59;5225777;28;20480;-65
2022/09/09 05:02:31;;;;;;;0.00;0.00;;;;;;;12.97;100.00;100489.09;5227977;28;20036;-65
2022/09/09 05:05:03;;;;;;;0.00;0.00;;;;;;;12.97;100.00;100495.28;5230055;28;20034;-66
2022/09/09 05:07:34;;;;;;;0.00;0.00;;;;;;;13.00;100.00;100504.84;5215923;28;20021;-66
2022/09/09 05:10:06;;;;;;;0.08;0.00;;;;;;;13.03;100.00;100508.09;5216164;28;20082;-65
2022/09/09 05:12:37;;;;;;;0.00;0.00;;;;;;;13.03;100.00;100497.38;5218387;28;20029;-65
2022/09/09 05:15:09;;;;;;;0.00;0.00;;;;;;;13.04;100.00;100506.25;5224971;28;20161;-65
2022/09/09 05:17:41;;;;;;;0.00;0.00;;;;;;;13.05;100.00;100494.56;5231253;28;20086;-65
2022/09/09 05:20:12;;;;;;;0.00;0.00;;;;;;;13.06;100.00;100489.06;5228526;28;20041;-65
2022/09/09 05:22:43;;;;;;;0.00;0.00;;;;;;;13.06;100.00;100497.13;5229166;28;20057;-65
2022/09/09 05:25:15;;;;;;;0.05;0.00;;;;;;;13.08;100.00;100486.25;5237613;28;20060;-64
2022/09/09 05:27:46;;;;;;;0.00;0.00;;;;;;;13.09;100.00;100488.78;5228617;28;20475;-65
2022/09/09 05:30:18;;;;;;;0.00;0.00;;;;;;;13.11;100.00;100489.47;5222065;28;20033;-65
2022/09/09 05:32:50;;;;;;;0.00;0.00;;;;;;;13.09;100.00;100488.78;5216107;28;20029;-65
2022/09/09 05:35:21;;;;;;;0.00;0.00;;;;;;;13.09;100.00;100485.25;5220435;28;20300;-65
2022/09/09 05:37:52;;;;;;;0.00;0.00;;;;;;;13.10;100.00;100490.47;5215073;28;20040;-65
2022/09/09 05:40:23;;;;;;;0.00;0.00;;;;;;;13.11;100.00;100488.63;5218642;28;20980;-65
2022/09/09 05:42:55;;;;;;;0.00;0.00;;;;;;;13.11;100.00;100489.47;5214422;28;20054;-65
2022/09/09 05:45:26;;;;;;;0.00;0.00;;;;;;;13.13;100.00;100497.38;5218258;28;20475;-65
2022/09/09 05:47:58;;;;;;;0.00;0.00;;;;;;;13.14;100.00;100499.06;5219484;28;20111;-65
2022/09/09 05:50:30;;;;;;;0.00;0.00;;;;;;;13.18;100.00;100499.63;5215240;28;20029;-65
2022/09/09 05:53:01;;;;;;;0.00;0.00;;;;;;;13.19;100.00;100507.50;5226763;28;20509;-64
2022/09/09 05:55:32;;;;;;;0.10;0.00;;;;;;;13.23;100.00;100508.06;5213591;28;20411;-65
2022/09/09 05:58:04;;;;;;;0.00;0.00;;;;;;;13.24;100.00;100510.63;5214370;28;20138;-64
2022/09/09 06:00:35;;;;;;;0.00;0.00;;;;;;;13.26;100.00;100502.44;5214847;28;20470;-65
2022/09/09 06:03:09;;;;;;;0.00;0.00;;;;;;;13.28;100.00;100508.50;5211199;28;20170;-64
2022/09/09 06:05:40;;;;;;;0.00;0.00;;;;;;;13.29;100.00;100507.53;5216541;28;20128;-64
2022/09/09 06:08:11;;;;;;;0.10;0.00;;;;;;;13.31;100.00;100501.06;5217559;28;20540;-65
2022/09/09 06:10:43;;;;;;;0.00;0.00;;;;;;;13.36;100.00;100497.94;5215256;28;20067;-65
2022/09/09 06:13:14;;;;;;;0.00;0.00;;;;;;;13.41;100.00;100506.41;5215203;28;20288;-65
2022/09/09 06:15:50;;;;;;;0.00;0.00;;;;;;;13.46;100.00;100520.22;5213380;28;20028;-65
2022/09/09 06:18:21;;;;;;;0.00;0.00;;;;;;;13.51;100.00;100506.38;5212060;28;20273;-65
2022/09/09 06:20:57;;;;;;;0.00;0.00;;;;;;;13.58;100.00;100514.69;5212253;28;20525;-66
2022/09/09 06:23:29;;;;;;;0.00;0.00;;;;;;;13.60;100.00;100512.72;5215431;28;20033;-65
2022/09/09 06:26:12;;;;;;;0.00;0.00;;;;;;;13.65;100.00;100518.47;5224450;28;20442;-65
2022/09/09 06:28:45;;;;;;;0.00;0.00;;;;;;;13.68;100.00;100513.66;5226886;28;20025;-65
2022/09/09 06:31:21;;;;;;;0.00;0.00;;;;;;;13.70;100.00;100513.50;5221670;28;20029;-65
2022/09/09 06:33:54;;;;;;;0.00;0.00;;;;;;;13.68;100.00;100510.13;5217875;28;20034;-65
2022/09/09 06:36:31;;;;;;;0.00;0.00;;;;;;;13.71;100.00;100513.38;5235903;28;20064;-66
2022/09/09 06:39:04;;;;;;;0.10;0.00;;;;;;;13.76;100.00;100515.59;5223624;28;20291;-66
2022/09/09 06:41:35;;;;;;;0.00;0.00;;;;;;;13.79;100.00;100509.97;5229027;28;20120;-65
2022/09/09 06:44:06;;;;;;;0.00;0.00;;;;;;;13.81;100.00;100513.34;5224269;28;20061;-65
2022/09/09 06:46:39;;;;;;;0.00;0.00;;;;;;;13.80;100.00;100500.91;5227379;28;20033;-65
2022/09/09 06:49:10;;;;;;;0.10;0.00;;;;;;;13.79;100.00;100504.59;5225352;28;20115;-65
2022/09/09 06:51:44;;;;;;;0.00;0.00;;;;;;;13.78;100.00;100502.91;5217759;28;20034;-72
2022/09/09 06:54:15;;;;;;;0.00;0.00;;;;;;;13.78;100.00;100492.16;5228084;28;20095;-72
2022/09/09 06:56:47;;;;;;;0.15;0.00;;;;;;;13.77;100.00;100487.81;5228933;28;20613;-72
2022/09/09 06:59:18;;;;;;;0.00;0.00;;;;;;;13.78;100.00;100502.06;5212950;28;20073;-71
2022/09/09 07:01:51;;;;;;;0.00;0.00;;;;;;;13.80;100.00;100505.44;5218150;28;20044;-72
2022/09/09 07:04:23;;;;;;;0.30;0.00;;;;;;;13.82;100.00;100504.28;5225635;28;20022;-72
2022/09/09 07:06:54;;;;;;;0.00;0.00;;;;;;;13.88;100.00;100508.22;5222457;28;20102;-72
2022/09/09 07:09:27;;;;;;;0.00;0.00;;;;;;;13.95;100.00;100505.81;5223261;28;20032;-72
2022/09/09 07:11:59;;;;;;;0.10;0.00;;;;;;;14.01;100.00;100513.25;5214466;28;20111;-72
2022/09/09 07:14:30;;;;;;;0.00;0.00;;;;;;;14.07;100.00;100509.97;5226915;28;20027;-73
2022/09/09 07:17:01;;;;;;;0.10;0.00;;;;;;;14.16;100.00;100509.09;5225571;28;20060;-73
2022/09/09 07:19:34;;;;;;;0.00;0.00;;;;;;;14.26;100.00;100507.19;5224198;28;20069;-73
2022/09/09 07:22:06;;;;;;;0.10;0.00;;;;;;;14.34;100.00;100500.25;5220197;28;20552;-73
2022/09/09 07:24:37;;;;;;;0.00;0.00;;;;;;;14.41;100.00;100504.84;5225214;28;20040;-73
2022/09/09 07:27:08;;;;;;;0.00;0.00;;;;;;;14.46;100.00;100491.00;5218490;28;20407;-73
2022/09/09 07:29:40;;;;;;;0.05;0.00;;;;;;;14.51;100.00;100496.72;5234507;28;20802;-73
2022/09/09 07:32:11;;;;;;;0.00;0.00;;;;;;;14.54;100.00;100499.13;5228354;28;20029;-73
2022/09/09 07:34:42;;;;;;;0.00;0.00;;;;;;;14.56;100.00;100493.63;5229257;28;20029;-73
2022/09/09 07:37:13;;;;;;;0.08;0.00;;;;;;;14.58;100.00;100505.91;5230156;28;20029;-73
2022/09/09 07:39:45;;;;;;;0.00;0.00;;;;;;;14.62;100.00;100509.97;5232764;28;20132;-73
2022/09/09 07:42:17;;;;;;;0.00;0.00;;;;;;;14.67;100.00;100515.75;5226819;28;20029;-74
2022/09/09 07:44:48;;;;;;;0.00;0.00;;;;;;;14.72;100.00;100503.69;5222426;28;20457;-73
2022/09/09 07:47:19;;;;;;;0.00;0.00;;;;;;;14.77;100.00;100504.94;5228052;28;20026;-73
2022/09/09 07:49:51;;;;;;;0.00;0.00;;;;;;;14.81;100.00;100500.94;5221198;28;20491;-73
2022/09/09 07:52:22;;;;;;;0.00;0.00;;;;;;;14.87;100.00;100502.16;5218684;28;20053;-73
2022/09/09 07:54:53;;;;;;;0.00;0.00;;;;;;;14.92;100.00;100497.19;5232938;28;20360;-72
2022/09/09 07:57:25;;;;;;;0.00;0.00;;;;;;;14.95;100.00;100499.53;5232036;28;20036;-73
2022/09/09 07:59:57;;;;;;;0.00;0.00;;;;;;;15.00;100.00;100507.16;5234092;28;20072;-73
2022/09/09 08:02:29;;;;;;;0.00;0.00;;;;;;;15.05;100.00;100496.78;5240015;28;20487;-73
2022/09/09 08:05:00;;;;;;;0.00;0.00;;;;;;;15.10;100.00;100506.06;5241467;28;20025;-73
2022/09/09 08:07:31;;;;;;;0.00;0.00;;;;;;;15.16;100.00;100503.75;5234571;28;20037;-73
2022/09/09 08:10:03;;;;;;;0.00;0.00;;;;;;;15.20;100.00;100505.13;5222914;28;20026;-73
2022/09/09 08:12:35;;;;;;;0.43;0.00;;;;;;;15.23;100.00;100500.28;5240411;28;20063;-73
2022/09/09 08:15:06;;;;;;;0.00;0.00;;;;;;;15.27;100.00;100500.81;5224413;28;20426;-73
2022/09/09 08:17:37;;;;;;;0.00;0.00;;;;;;;15.33;100.00;100510.09;5234174;28;20069;-73
2022/09/09 08:20:09;;;;;;;0.00;0.00;;;;;;;15.37;100.00;100506.09;5233404;28;20032;-74
2022/09/09 08:22:41;;;;;;;0.00;0.00;;;;;;;15.42;100.00;100507.31;5246245;28;20107;-73
2022/09/09 08:25:13;;;;;;;0.00;0.00;;;;;;;15.46;100.00;100500.63;5238315;28;20436;-73
2022/09/09 08:27:44;;;;;;;0.00;0.00;;;;;;;15.54;100.00;100505.22;5223141;28;20124;-73
2022/09/09 08:30:16;;;;;;;0.00;0.00;;;;;;;15.59;100.00;100510.09;5220456;28;20039;-73
2022/09/09 08:32:50;;;;;;;0.20;0.00;;;;;;;15.62;100.00;100517.88;5231970;28;20029;-73
2022/09/09 08:35:22;;;;;;;0.00;0.00;;;;;;;15.66;100.00;100511.16;5232691;28;20091;-73
2022/09/09 08:37:54;;;;;;;0.00;0.00;;;;;;;15.70;100.00;100523.28;5228308;28;20390;-73
2022/09/09 08:40:29;;;;;;;0.00;0.00;;;;;;;15.71;100.00;100522.28;5229154;28;20108;-73
2022/09/09 08:43:04;;;;;;;0.00;0.00;;;;;;;15.69;100.00;100530.53;5229797;28;20120;-73
2022/09/09 08:45:49;;;;;;;0.00;0.00;;;;;;;15.67;100.00;100529.00;5229362;28;20056;-73
2022/09/09 08:48:35;;;;;;;0.00;0.00;;;;;;;15.65;100.00;100525.63;5239733;28;20034;-73
2022/09/09 08:51:07;;;;;;;0.10;0.00;;;;;;;15.66;100.00;100532.69;5233393;28;20033;-73
2022/09/09 08:53:43;;;;;;;0.28;0.00;;;;;;;15.66;100.00;100524.59;5225986;28;20047;-73
2022/09/09 08:56:21;;;;;;;0.00;0.00;;;;;;;15.69;100.00;100527.81;5224522;28;20475;-74
2022/09/09 08:58:54;;;;;;;0.00;0.00;;;;;;;15.75;100.00;100531.75;5222004;28;20072;-73
2022/09/09 09:01:41;;;;;;;0.00;0.00;;;;;;;15.81;100.00;100539.19;5225897;28;20103;-74
2022/09/09 09:04:31;;;;;;;0.05;0.00;;;;;;;15.81;100.00;100525.75;5224456;28;20555;-74
2022/09/09 09:07:41;;;;;;;0.10;0.00;;;;;;;15.88;100.00;100550.19;5229340;28;20029;-73
2022/09/09 09:10:25;;;;;;;0.00;0.00;;;;;;;15.87;100.00;100551.16;5238421;28;20056;-73
2022/09/09 09:12:57;;;;;;;0.10;0.00;;;;;;;15.86;100.00;100546.81;5236597;28;20040;-73
2022/09/09 09:15:36;;;;;;;0.00;0.00;;;;;;;15.90;100.00;100550.84;5231323;28;20098;-74
2022/09/09 09:18:12;;;;;;;0.00;0.00;;;;;;;15.93;100.00;100547.00;5233587;28;20132;-74
2022/09/09 09:21:34;;;;;;;0.00;0.00;;;;;;;15.95;100.00;100550.38;5219077;28;20029;-73
2022/09/09 09:24:32;;;;;;;0.00;0.00;;;;;;;15.90;100.00;100550.84;5231307;28;20040;-74
2022/09/09 09:27:40;;;;;;;0.05;0.00;;;;;;;15.90;100.00;100556.25;5226657;28;20437;-73
2022/09/09 09:30:18;;;;;;;0.00;0.00;;;;;;;15.87;100.00;100565.44;5226369;28;20049;-74
2022/09/09 09:32:58;;;;;;;0.00;0.00;;;;;;;15.87;100.00;100561.94;5233604;28;20034;-73
2022/09/09 09:35:29;;;;;;;0.00;0.00;;;;;;;15.85;100.00;100547.78;5221597;28;20128;-73
2022/09/09 09:38:02;;;;;;;0.00;0.00;;;;;;;15.91;100.00;100549.00;5236190;28;20045;-73
2022/09/09 09:40:34;;;;;;;0.00;0.00;;;;;;;15.98;100.00;100545.50;5234052;28;20021;-74
2022/09/09 09:43:08;;;;;;;0.08;0.00;;;;;;;16.01;100.00;100550.59;5230061;28;20057;-73
2022/09/09 09:45:47;;;;;;;0.25;0.00;;;;;;;16.01;100.00;100555.97;5240813;28;20033;-73
2022/09/09 09:48:18;;;;;;;0.15;0.10;;;;;;;15.97;100.00;100546.50;5244511;28;20428;-73
2022/09/09 09:51:02;;;;;;;0.00;0.00;;;;;;;15.98;100.00;100548.19;5227215;28;20163;-73
2022/09/09 09:53:36;;;;;;;0.10;0.00;;;;;;;15.96;100.00;100547.53;5238739;28;20475;-73
2022/09/09 09:56:11;;;;;;;0.22;0.00;;;;;;;15.97;100.00;100553.75;5235826;28;20029;-73
2022/09/09 09:58:45;;;;;;;0.05;0.00;;;;;;;15.95;100.00;100555.75;5227241;28;20451;-74
2022/09/09 10:01:27;;;;;;;0.13;0.00;;;;;;;15.93;100.00;100555.91;5229648;28;20082;-73
2022/09/09 10:04:01;;;;;;;0.00;0.00;;;;;;;15.88;100.00;100558.25;5241171;28;20024;-73
2022/09/09 10:06:37;;;;;;;0.10;0.00;;;;;;;15.86;100.00;100555.72;5236188;28;20025;-73
2022/09/09 10:09:28;;;;;;;0.00;0.00;;;;;;;15.89;100.00;100554.53;5240872;28;20036;-73
2022/09/09 10:12:18;;;;;;;0.00;0.00;;;;;;;15.90;100.00;100550.00;5238924;28;20033;-72
2022/09/09 10:15:02;;;;;;;0.00;0.00;;;;;;;15.89;100.00;100554.53;5237280;28;20106;-73
2022/09/09 10:17:43;;;;;;;0.10;0.00;;;;;;;15.91;100.00;100559.75;5234923;28;20029;-72
2022/09/09 10:20:44;;;;;;;0.05;0.00;;;;;;;15.92;100.00;100556.09;5231686;28;20029;-72
2022/09/09 10:23:43;;;;;;;0.00;0.00;;;;;;;15.92;100.00;100564.16;5223619;28;20611;-73
2022/09/09 10:26:26;;;;;;;0.08;0.00;;;;;;;15.88;100.00;100563.63;5226360;28;20485;-73
2022/09/09 10:29:22;;;;;;;0.00;0.00;;;;;;;15.84;100.00;100563.09;5234808;28;20120;-73
2022/09/09 10:32:12;;;;;;;0.00;0.00;;;;;;;15.80;100.00;100564.41;5228706;28;20371;-73
2022/09/09 10:35:15;;;;;;;0.00;0.00;;;;;;;15.76;100.00;100568.44;5237938;28;20029;-73
2022/09/09 10:38:18;;;;;;;0.00;0.00;;;;;;;15.76;100.00;100563.06;5233065;28;20044;-73
2022/09/09 10:41:07;;;;;;;0.00;0.00;;;;;;;15.75;100.00;100571.28;5235442;28;20466;-73
2022/09/09 10:44:04;;;;;;;0.05;0.00;;;;;;;15.71;100.00;100562.63;5233613;28;20049;-73
2022/09/09 10:46:57;;;;;;;0.00;0.00;;;;;;;15.74;100.00;100556.97;5231298;28;20034;-73
2022/09/09 10:49:59;;;;;;;0.00;0.00;;;;;;;15.76;100.00;100565.75;5229864;28;20498;-73
2022/09/09 10:52:50;;;;;;;0.13;0.00;;;;;;;15.82;100.00;100564.25;5223032;28;20068;-73
2022/09/09 10:55:30;;;;;;;0.00;0.00;;;;;;;15.88;100.00;100560.94;5235567;28;20065;-73
2022/09/09 10:58:04;;;;;;;0.00;0.00;;;;;;;15.97;100.00;100559.13;5232702;28;20524;-73
2022/09/09 11:00:46;;;;;;;0.08;0.00;;;;;;;16.00;100.00;100556.13;5237334;28;20026;-73
2022/09/09 11:03:29;;;;;;;0.10;0.00;;;;;;;16.02;100.00;100565.72;5234827;28;20033;-73
2022/09/09 11:06:16;;;;;;;0.00;0.00;;;;;;;16.05;100.00;100564.53;5234066;28;20048;-73
2022/09/09 11:08:49;;;;;;;0.00;0.00;;;;;;;16.08;100.00;100559.69;5234425;28;20021;-73
2022/09/09 11:11:34;;;;;;;0.13;0.00;;;;;;;16.14;100.00;100568.13;5225179;28;20047;-74
2022/09/09 11:14:14;;;;;;;0.00;0.00;;;;;;;16.15;100.00;100559.91;5217105;28;20021;-73
2022/09/09 11:16:51;;;;;;;0.00;0.00;;;;;;;16.19;100.00;100566.66;5231119;28;20196;-73
2022/09/09 11:19:40;;;;;;;0.00;0.00;;;;;;;16.27;100.00;100563.97;5237302;28;21290;-73
2022/09/09 11:22:29;;;;;;;0.10;0.00;;;;;;;16.29;100.00;100565.69;5230794;28;20049;-73
2022/09/09 11:25:18;;;;;;;0.00;0.00;;;;;;;16.29;100.00;100566.53;5234731;28;20036;-73
2022/09/09 11:27:56;;;;;;;0.00;0.00;;;;;;;16.31;100.00;100560.97;5239422;28;20029;-73
2022/09/09 11:30:38;;;;;;;0.10;0.00;;;;;;;16.27;100.00;100568.53;5225337;28;20112;-73
2022/09/09 11:33:17;;;;;;;0.10;0.00;;;;;;;16.22;100.00;100542.09;5226457;28;20035;-73
2022/09/09 11:36:10;;;;;;;0.10;0.00;;;;;;;16.23;100.00;100567.16;5237682;28;20025;-74
2022/09/09 11:38:47;;;;;;;0.10;0.00;;;;;;;16.19;100.00;100560.44;5238525;28;20033;-73
2022/09/09 11:41:21;;;;;;;0.08;0.00;;;;;;;16.16;100.00;100556.19;5243790;28;20491;-73
2022/09/09 11:43:53;;;;;;;0.00;0.00;;;;;;;16.17;100.00;100557.06;5232222;28;20052;-72
2022/09/09 11:46:35;;;;;;;0.00;0.00;;;;;;;16.17;100.00;100563.28;5244305;28;20037;-72
2022/09/09 11:49:27;;;;;;;0.10;0.00;;;;;;;16.17;100.00;100562.44;5239066;28;20078;-73
2022/09/09 11:51:59;;;;;;;0.00;0.00;;;;;;;16.12;100.00;100551.31;5238389;28;20083;-73
2022/09/09 11:54:32;;;;;;;0.00;0.00;;;;;;;16.13;100.00;100567.28;5232053;28;21123;-73
2022/09/09 11:57:04;;;;;;;0.05;0.00;;;;;;;16.14;100.00;100555.50;5236309;28;20643;-73
2022/09/09 11:59:36;;;;;;;0.10;0.00;;;;;;;16.17;100.00;100549.81;5243449;28;20021;-73
2022/09/09 12:02:29;;;;;;;0.13;0.00;;;;;;;16.23;100.00;100557.25;5228131;28;20030;-73